PWSweather.com
Personal Weather Stations
Station Observations
WHHZ1080
Hladke ZivoticeCZ 742 47

Hladke ZivoticeCZ 742 47

Lat: 49.6818201, Lon: 17.94963610000002

Elevation: 282

Station Type: Davis Vantage Vue

http://wh1080.m-zone.cz/

Latest ConditionsUpdated 9:05:01 AM GMT+01:01 Thursday, Dec 12, 2019
Currently Today's Max Today's Min Today's Average
Temperature 32.5°F0.3°C 32.5°F0.3°C 25.8°F-3.4°C 28.4°F-2.0°C
Dew Point 28.5°F-1.9°C 28.5°F-1.9°C 21.2°F-6.0°C 24.1°F-4.4°C
Winds 6.0 mph SSW9.7 kmh SSW 6.0 mph -9.7 kmh - - 3.0 mph 4.8 kmh
Wind Gusts 13.0 mph20.9 kmh 13.0 mph20.9 kmh - -
Humidity 85% 85% 80% 84%
Pressure 29.86 in1011.2 mb 29.92 in1013.2 mb 29.83 in1010.2 mb -
Hour Temp Dew Point Humidity Winds Wind Gusts Pressure Precip Precip Rate Daily Precip Total
09:05 AM 32.5°F0.3°C 28.5°F-1.9°C 85% 6.0 mph SSW9.7 kmh SSW 13.0 mph20.9 kmh 29.86 in1011.2 mb 0.00 in0.0 mm 0.00 in0.0 mm 0.00 in0.0 mm
09:00 AM 32.4°F0.2°C 28.4°F-2.0°C 85% 6.0 mph SSW9.7 kmh SSW 13.0 mph20.9 kmh 29.86 in1011.2 mb 0.00 in0.0 mm 0.00 in0.0 mm 0.00 in0.0 mm
08:55 AM 32.4°F0.2°C 28.4°F-2.0°C 85% 6.0 mph SSW9.7 kmh SSW 11.0 mph17.7 kmh 29.86 in1011.2 mb 0.00 in0.0 mm 0.00 in0.0 mm 0.00 in0.0 mm
08:50 AM 32.4°F0.2°C 28.4°F-2.0°C 85% 6.0 mph SSW9.7 kmh SSW 11.0 mph17.7 kmh 29.86 in1011.2 mb 0.00 in0.0 mm 0.00 in0.0 mm 0.00 in0.0 mm
08:45 AM 32.2°F0.1°C 28.2°F-2.1°C 85% 5.0 mph SSW8.0 kmh SSW 11.0 mph17.7 kmh 29.86 in1011.2 mb 0.00 in0.0 mm 0.00 in0.0 mm 0.00 in0.0 mm
08:40 AM 32.0°F0.0°C 28.0°F-2.2°C 85% 5.0 mph SW8.0 kmh SW 11.0 mph17.7 kmh 29.86 in1011.2 mb 0.00 in0.0 mm 0.00 in0.0 mm 0.00 in0.0 mm
08:35 AM 32.0°F0.0°C 28.0°F-2.2°C 85% 4.0 mph SSW6.4 kmh SSW 11.0 mph17.7 kmh 29.86 in1011.2 mb 0.00 in0.0 mm 0.00 in0.0 mm 0.00 in0.0 mm
08:30 AM 31.8°F-0.1°C 27.8°F-2.3°C 85% 4.0 mph SSW6.4 kmh SSW 9.0 mph14.5 kmh 29.86 in1011.2 mb 0.00 in0.0 mm 0.00 in0.0 mm 0.00 in0.0 mm
08:25 AM 31.6°F-0.2°C 27.6°F-2.4°C 85% 4.0 mph SW6.4 kmh SW 8.0 mph12.9 kmh 29.86 in1011.2 mb 0.00 in0.0 mm 0.00 in0.0 mm 0.00 in0.0 mm
08:20 AM 31.6°F-0.2°C 27.6°F-2.4°C 85% 4.0 mph SSW6.4 kmh SSW 8.0 mph12.9 kmh 29.86 in1011.2 mb 0.00 in0.0 mm 0.00 in0.0 mm 0.00 in0.0 mm
08:15 AM 31.5°F-0.3°C 27.5°F-2.5°C 85% 4.0 mph SSW6.4 kmh SSW 8.0 mph12.9 kmh 29.86 in1011.2 mb 0.00 in0.0 mm 0.00 in0.0 mm 0.00 in0.0 mm
08:10 AM 31.3°F-0.4°C 27.3°F-2.6°C 85% 4.0 mph SSW6.4 kmh SSW 10.0 mph16.1 kmh 29.86 in1011.2 mb 0.00 in0.0 mm 0.00 in0.0 mm 0.00 in0.0 mm
08:05 AM 31.3°F-0.4°C 27.3°F-2.6°C 85% 4.0 mph SSW6.4 kmh SSW 10.0 mph16.1 kmh 29.86 in1011.2 mb 0.00 in0.0 mm 0.00 in0.0 mm 0.00 in0.0 mm
08:00 AM 31.3°F-0.4°C 27.3°F-2.6°C 85% 3.0 mph SSW4.8 kmh SSW 8.0 mph12.9 kmh 29.86 in1011.2 mb 0.00 in0.0 mm 0.00 in0.0 mm 0.00 in0.0 mm
07:55 AM 31.3°F-0.4°C 27.3°F-2.6°C 85% 2.0 mph SW3.2 kmh SW 8.0 mph12.9 kmh 29.86 in1011.2 mb 0.00 in0.0 mm 0.00 in0.0 mm 0.00 in0.0 mm
07:50 AM 31.3°F-0.4°C 27.3°F-2.6°C 85% 2.0 mph SW3.2 kmh SW 8.0 mph12.9 kmh 29.86 in1011.2 mb 0.00 in0.0 mm 0.00 in0.0 mm 0.00 in0.0 mm
07:45 AM 31.1°F-0.5°C 27.1°F-2.7°C 85% 3.0 mph SW4.8 kmh SW 7.0 mph11.3 kmh 29.86 in1011.2 mb 0.00 in0.0 mm 0.00 in0.0 mm 0.00 in0.0 mm
07:40 AM 30.9°F-0.6°C 26.9°F-2.8°C 85% 4.0 mph SW6.4 kmh SW 10.0 mph16.1 kmh 29.86 in1011.2 mb 0.00 in0.0 mm 0.00 in0.0 mm 0.00 in0.0 mm
07:35 AM 31.1°F-0.5°C 27.1°F-2.7°C 85% 4.0 mph SSW6.4 kmh SSW 10.0 mph16.1 kmh 29.86 in1011.2 mb 0.00 in0.0 mm 0.00 in0.0 mm 0.00 in0.0 mm
07:30 AM 30.9°F-0.6°C 26.9°F-2.8°C 85% 4.0 mph SSW6.4 kmh SSW 8.0 mph12.9 kmh 29.86 in1011.2 mb 0.00 in0.0 mm 0.00 in0.0 mm 0.00 in0.0 mm
07:25 AM 30.9°F-0.6°C 26.7°F-2.9°C 84% 4.0 mph SSW6.4 kmh SSW 9.0 mph14.5 kmh 29.86 in1011.2 mb 0.00 in0.0 mm 0.00 in0.0 mm 0.00 in0.0 mm
07:20 AM 30.9°F-0.6°C 26.7°F-2.9°C 84% 4.0 mph SSW6.4 kmh SSW 10.0 mph16.1 kmh 29.86 in1011.2 mb 0.00 in0.0 mm 0.00 in0.0 mm 0.00 in0.0 mm
07:15 AM 30.9°F-0.6°C 26.7°F-2.9°C 84% 4.0 mph SW6.4 kmh SW 10.0 mph16.1 kmh 29.86 in1011.2 mb 0.00 in0.0 mm 0.00 in0.0 mm 0.00 in0.0 mm
07:10 AM 30.9°F-0.6°C 26.9°F-2.8°C 85% 4.0 mph SW6.4 kmh SW 9.0 mph14.5 kmh 29.86 in1011.2 mb 0.00 in0.0 mm 0.00 in0.0 mm 0.00 in0.0 mm
07:00 AM 30.7°F-0.7°C 26.8°F-2.9°C 85% 3.0 mph SSW4.8 kmh SSW 8.0 mph12.9 kmh 29.85 in1010.8 mb 0.00 in0.0 mm 0.00 in0.0 mm 0.00 in0.0 mm
06:55 AM 30.6°F-0.8°C 26.6°F-3.0°C 85% 3.0 mph SW4.8 kmh SW 8.0 mph12.9 kmh 29.85 in1010.8 mb 0.00 in0.0 mm 0.00 in0.0 mm 0.00 in0.0 mm
06:50 AM 30.4°F-0.9°C 26.4°F-3.1°C 85% 3.0 mph SW4.8 kmh SW 8.0 mph12.9 kmh 29.86 in1011.2 mb 0.00 in0.0 mm 0.00 in0.0 mm 0.00 in0.0 mm
06:45 AM 30.4°F-0.9°C 26.4°F-3.1°C 85% 4.0 mph SW6.4 kmh SW 7.0 mph11.3 kmh 29.85 in1010.8 mb 0.00 in0.0 mm 0.00 in0.0 mm 0.00 in0.0 mm
06:40 AM 30.0°F-1.1°C 26.1°F-3.3°C 85% 3.0 mph SW4.8 kmh SW 9.0 mph14.5 kmh 29.85 in1010.8 mb 0.00 in0.0 mm 0.00 in0.0 mm 0.00 in0.0 mm
06:35 AM 30.0°F-1.1°C 26.1°F-3.3°C 85% 3.0 mph SSW4.8 kmh SSW 9.0 mph14.5 kmh 29.85 in1010.8 mb 0.00 in0.0 mm 0.00 in0.0 mm 0.00 in0.0 mm
06:30 AM 29.7°F-1.3°C 25.7°F-3.5°C 85% 3.0 mph SW4.8 kmh SW 7.0 mph11.3 kmh 29.85 in1010.8 mb 0.00 in0.0 mm 0.00 in0.0 mm 0.00 in0.0 mm
06:25 AM 29.5°F-1.4°C 25.5°F-3.6°C 85% 3.0 mph SW4.8 kmh SW 6.0 mph9.7 kmh 29.85 in1010.8 mb 0.00 in0.0 mm 0.00 in0.0 mm 0.00 in0.0 mm
06:20 AM 29.3°F-1.5°C 25.4°F-3.7°C 85% 3.0 mph SW4.8 kmh SW 7.0 mph11.3 kmh 29.85 in1010.8 mb 0.00 in0.0 mm 0.00 in0.0 mm 0.00 in0.0 mm
06:15 AM 29.1°F-1.6°C 25.2°F-3.8°C 85% 3.0 mph SW4.8 kmh SW 8.0 mph12.9 kmh 29.85 in1010.8 mb 0.00 in0.0 mm 0.00 in0.0 mm 0.00 in0.0 mm
06:10 AM 29.1°F-1.6°C 25.2°F-3.8°C 85% 3.0 mph SW4.8 kmh SW 8.0 mph12.9 kmh 29.85 in1010.8 mb 0.00 in0.0 mm 0.00 in0.0 mm 0.00 in0.0 mm
06:05 AM 28.9°F-1.7°C 25.0°F-3.9°C 85% 3.0 mph SW4.8 kmh SW 9.0 mph14.5 kmh 29.85 in1010.8 mb 0.00 in0.0 mm 0.00 in0.0 mm 0.00 in0.0 mm
06:00 AM 28.9°F-1.7°C 24.7°F-4.1°C 84% 3.0 mph SW4.8 kmh SW 9.0 mph14.5 kmh 29.85 in1010.8 mb 0.00 in0.0 mm 0.00 in0.0 mm 0.00 in0.0 mm
05:55 AM 28.9°F-1.7°C 24.7°F-4.1°C 84% 3.0 mph SW4.8 kmh SW 9.0 mph14.5 kmh 29.84 in1010.5 mb 0.00 in0.0 mm 0.00 in0.0 mm 0.00 in0.0 mm
05:50 AM 28.9°F-1.7°C 24.7°F-4.1°C 84% 3.0 mph SW4.8 kmh SW 9.0 mph14.5 kmh 29.84 in1010.5 mb 0.00 in0.0 mm 0.00 in0.0 mm 0.00 in0.0 mm
05:45 AM 28.9°F-1.7°C 24.7°F-4.1°C 84% 3.0 mph SW4.8 kmh SW 10.0 mph16.1 kmh 29.84 in1010.5 mb 0.00 in0.0 mm 0.00 in0.0 mm 0.00 in0.0 mm
05:40 AM 28.9°F-1.7°C 24.7°F-4.1°C 84% 3.0 mph SW4.8 kmh SW 10.0 mph16.1 kmh 29.84 in1010.5 mb 0.00 in0.0 mm 0.00 in0.0 mm 0.00 in0.0 mm
05:35 AM 29.1°F-1.6°C 24.9°F-3.9°C 84% 4.0 mph SW6.4 kmh SW 9.0 mph14.5 kmh 29.84 in1010.5 mb 0.00 in0.0 mm 0.00 in0.0 mm 0.00 in0.0 mm
05:30 AM 29.1°F-1.6°C 24.9°F-3.9°C 84% 3.0 mph SW4.8 kmh SW 9.0 mph14.5 kmh 29.84 in1010.5 mb 0.00 in0.0 mm 0.00 in0.0 mm 0.00 in0.0 mm
05:15 AM 29.1°F-1.6°C 24.6°F-4.1°C 83% 3.0 mph SW4.8 kmh SW 8.0 mph12.9 kmh 29.84 in1010.5 mb 0.00 in0.0 mm 0.00 in0.0 mm 0.00 in0.0 mm
05:10 AM 28.9°F-1.7°C 24.7°F-4.1°C 84% 3.0 mph SW4.8 kmh SW 8.0 mph12.9 kmh 29.83 in1010.2 mb 0.00 in0.0 mm 0.00 in0.0 mm 0.00 in0.0 mm
05:05 AM 28.8°F-1.8°C 24.6°F-4.1°C 84% 3.0 mph SW4.8 kmh SW 8.0 mph12.9 kmh 29.83 in1010.2 mb 0.00 in0.0 mm 0.00 in0.0 mm 0.00 in0.0 mm
05:00 AM 28.7°F-1.8°C 24.5°F-4.2°C 84% 4.0 mph SW6.4 kmh SW 11.0 mph17.7 kmh 29.83 in1010.2 mb 0.00 in0.0 mm 0.00 in0.0 mm 0.00 in0.0 mm
04:55 AM 28.6°F-1.9°C 24.4°F-4.2°C 84% 4.0 mph SW6.4 kmh SW 11.0 mph17.7 kmh 29.83 in1010.2 mb 0.00 in0.0 mm 0.00 in0.0 mm 0.00 in0.0 mm
04:50 AM 28.5°F-1.9°C 24.3°F-4.3°C 84% 3.0 mph SW4.8 kmh SW 8.0 mph12.9 kmh 29.83 in1010.2 mb 0.00 in0.0 mm 0.00 in0.0 mm 0.00 in0.0 mm
04:45 AM 28.4°F-2.0°C 24.2°F-4.3°C 84% 3.0 mph SW4.8 kmh SW 7.0 mph11.3 kmh 29.84 in1010.5 mb 0.00 in0.0 mm 0.00 in0.0 mm 0.00 in0.0 mm
04:40 AM 28.3°F-2.1°C 24.1°F-4.4°C 84% 3.0 mph SW4.8 kmh SW 7.0 mph11.3 kmh 29.83 in1010.2 mb 0.00 in0.0 mm 0.00 in0.0 mm 0.00 in0.0 mm
04:35 AM 28.1°F-2.2°C 23.9°F-4.5°C 84% 3.0 mph SW4.8 kmh SW 9.0 mph14.5 kmh 29.84 in1010.5 mb 0.00 in0.0 mm 0.00 in0.0 mm 0.00 in0.0 mm
04:30 AM 28.0°F-2.2°C 23.8°F-4.6°C 84% 3.0 mph SW4.8 kmh SW 9.0 mph14.5 kmh 29.84 in1010.5 mb 0.00 in0.0 mm 0.00 in0.0 mm 0.00 in0.0 mm
04:25 AM 28.1°F-2.2°C 23.6°F-4.7°C 83% 5.0 mph SW8.0 kmh SW 13.0 mph20.9 kmh 29.84 in1010.5 mb 0.00 in0.0 mm 0.00 in0.0 mm 0.00 in0.0 mm
04:20 AM 28.0°F-2.2°C 23.8°F-4.6°C 84% 6.0 mph SSW9.7 kmh SSW 13.0 mph20.9 kmh 29.84 in1010.5 mb 0.00 in0.0 mm 0.00 in0.0 mm 0.00 in0.0 mm
04:15 AM 27.9°F-2.3°C 23.7°F-4.6°C 84% 5.0 mph SW8.0 kmh SW 11.0 mph17.7 kmh 29.84 in1010.5 mb 0.00 in0.0 mm 0.00 in0.0 mm 0.00 in0.0 mm
04:10 AM 27.8°F-2.3°C 23.6°F-4.7°C 84% 4.0 mph SW6.4 kmh SW 9.0 mph14.5 kmh 29.84 in1010.5 mb 0.00 in0.0 mm 0.00 in0.0 mm 0.00 in0.0 mm
04:05 AM 27.5°F-2.5°C 23.3°F-4.8°C 84% 4.0 mph SSW6.4 kmh SSW 9.0 mph14.5 kmh 29.85 in1010.8 mb 0.00 in0.0 mm 0.00 in0.0 mm 0.00 in0.0 mm
04:00 AM 27.4°F-2.6°C 23.2°F-4.9°C 84% 4.0 mph SSW6.4 kmh SSW 9.0 mph14.5 kmh 29.84 in1010.5 mb 0.00 in0.0 mm 0.00 in0.0 mm 0.00 in0.0 mm
03:55 AM 27.2°F-2.7°C 23.0°F-5.0°C 84% 3.0 mph SSW4.8 kmh SSW 9.0 mph14.5 kmh 29.85 in1010.8 mb 0.00 in0.0 mm 0.00 in0.0 mm 0.00 in0.0 mm
03:50 AM 26.9°F-2.8°C 22.7°F-5.2°C 84% 3.0 mph SW4.8 kmh SW 7.0 mph11.3 kmh 29.85 in1010.8 mb 0.00 in0.0 mm 0.00 in0.0 mm 0.00 in0.0 mm
03:45 AM 26.7°F-2.9°C 22.8°F-5.1°C 85% 3.0 mph SW4.8 kmh SW 6.0 mph9.7 kmh 29.85 in1010.8 mb 0.00 in0.0 mm 0.00 in0.0 mm 0.00 in0.0 mm
03:40 AM 26.6°F-3.0°C 22.7°F-5.2°C 85% 3.0 mph SSW4.8 kmh SSW 6.0 mph9.7 kmh 29.85 in1010.8 mb 0.00 in0.0 mm 0.00 in0.0 mm 0.00 in0.0 mm
03:35 AM 26.5°F-3.1°C 22.6°F-5.2°C 85% 2.0 mph SW3.2 kmh SW 6.0 mph9.7 kmh 29.85 in1010.8 mb 0.00 in0.0 mm 0.00 in0.0 mm 0.00 in0.0 mm
03:30 AM 26.5°F-3.1°C 22.3°F-5.4°C 84% 2.0 mph SW3.2 kmh SW 7.0 mph11.3 kmh 29.85 in1010.8 mb 0.00 in0.0 mm 0.00 in0.0 mm 0.00 in0.0 mm
03:25 AM 26.5°F-3.1°C 22.3°F-5.4°C 84% 3.0 mph SSW4.8 kmh SSW 7.0 mph11.3 kmh 29.86 in1011.2 mb 0.00 in0.0 mm 0.00 in0.0 mm 0.00 in0.0 mm
03:20 AM 26.5°F-3.1°C 22.3°F-5.4°C 84% 3.0 mph SW4.8 kmh SW 5.0 mph8.0 kmh 29.86 in1011.2 mb 0.00 in0.0 mm 0.00 in0.0 mm 0.00 in0.0 mm
03:15 AM 26.5°F-3.1°C 22.3°F-5.4°C 84% 2.0 mph SW3.2 kmh SW 5.0 mph8.0 kmh 29.86 in1011.2 mb 0.00 in0.0 mm 0.00 in0.0 mm 0.00 in0.0 mm
03:10 AM 26.5°F-3.1°C 22.3°F-5.4°C 84% 2.0 mph SSW3.2 kmh SSW 6.0 mph9.7 kmh 29.86 in1011.2 mb 0.00 in0.0 mm 0.00 in0.0 mm 0.00 in0.0 mm
03:05 AM 26.5°F-3.1°C 22.3°F-5.4°C 84% 2.0 mph SW3.2 kmh SW 7.0 mph11.3 kmh 29.86 in1011.2 mb 0.00 in0.0 mm 0.00 in0.0 mm 0.00 in0.0 mm
03:00 AM 26.5°F-3.1°C 22.3°F-5.4°C 84% 2.0 mph SW3.2 kmh SW 7.0 mph11.3 kmh 29.86 in1011.2 mb 0.00 in0.0 mm 0.00 in0.0 mm 0.00 in0.0 mm
02:55 AM 26.5°F-3.1°C 22.3°F-5.4°C 84% 3.0 mph SW4.8 kmh SW 7.0 mph11.3 kmh 29.86 in1011.2 mb 0.00 in0.0 mm 0.00 in0.0 mm 0.00 in0.0 mm
02:50 AM 26.5°F-3.1°C 22.3°F-5.4°C 84% 3.0 mph SW4.8 kmh SW 7.0 mph11.3 kmh 29.87 in1011.5 mb 0.00 in0.0 mm 0.00 in0.0 mm 0.00 in0.0 mm
02:45 AM 26.5°F-3.1°C 22.3°F-5.4°C 84% 3.0 mph SSW4.8 kmh SSW 7.0 mph11.3 kmh 29.87 in1011.5 mb 0.00 in0.0 mm 0.00 in0.0 mm 0.00 in0.0 mm
02:40 AM 26.5°F-3.1°C 22.3°F-5.4°C 84% 3.0 mph SW4.8 kmh SW 7.0 mph11.3 kmh 29.87 in1011.5 mb 0.00 in0.0 mm 0.00 in0.0 mm 0.00 in0.0 mm
02:35 AM 26.5°F-3.1°C 22.3°F-5.4°C 84% 3.0 mph SW4.8 kmh SW 7.0 mph11.3 kmh 29.87 in1011.5 mb 0.00 in0.0 mm 0.00 in0.0 mm 0.00 in0.0 mm
02:30 AM 26.5°F-3.1°C 22.3°F-5.4°C 84% 3.0 mph SSW4.8 kmh SSW 6.0 mph9.7 kmh 29.87 in1011.5 mb 0.00 in0.0 mm 0.00 in0.0 mm 0.00 in0.0 mm
02:25 AM 26.4°F-3.1°C 22.2°F-5.4°C 84% 3.0 mph SSW4.8 kmh SSW 8.0 mph12.9 kmh 29.88 in1011.9 mb 0.00 in0.0 mm 0.00 in0.0 mm 0.00 in0.0 mm
02:20 AM 26.4°F-3.1°C 22.2°F-5.4°C 84% 3.0 mph SSW4.8 kmh SSW 8.0 mph12.9 kmh 29.88 in1011.9 mb 0.00 in0.0 mm 0.00 in0.0 mm 0.00 in0.0 mm
02:15 AM 26.2°F-3.2°C 22.0°F-5.6°C 84% 3.0 mph SW4.8 kmh SW 6.0 mph9.7 kmh 29.88 in1011.9 mb 0.00 in0.0 mm 0.00 in0.0 mm 0.00 in0.0 mm
02:10 AM 26.0°F-3.3°C 21.8°F-5.7°C 84% 2.0 mph SW3.2 kmh SW 6.0 mph9.7 kmh 29.88 in1011.9 mb 0.00 in0.0 mm 0.00 in0.0 mm 0.00 in0.0 mm
02:05 AM 25.9°F-3.4°C 21.7°F-5.7°C 84% 2.0 mph SSW3.2 kmh SSW 6.0 mph9.7 kmh 29.88 in1011.9 mb 0.00 in0.0 mm 0.00 in0.0 mm 0.00 in0.0 mm
02:00 AM 25.8°F-3.4°C 21.6°F-5.8°C 84% 2.0 mph SW3.2 kmh SW 4.0 mph6.4 kmh 29.88 in1011.9 mb 0.00 in0.0 mm 0.00 in0.0 mm 0.00 in0.0 mm
01:55 AM 25.8°F-3.4°C 21.3°F-5.9°C 83% 1.0 mph SW1.6 kmh SW 4.0 mph6.4 kmh 29.88 in1011.9 mb 0.00 in0.0 mm 0.00 in0.0 mm 0.00 in0.0 mm
01:50 AM 25.8°F-3.4°C 21.3°F-5.9°C 83% 2.0 mph SW3.2 kmh SW 4.0 mph6.4 kmh 29.89 in1012.2 mb 0.00 in0.0 mm 0.00 in0.0 mm 0.00 in0.0 mm
01:45 AM 25.9°F-3.4°C 21.4°F-5.9°C 83% 2.0 mph SSW3.2 kmh SSW 5.0 mph8.0 kmh 29.89 in1012.2 mb 0.00 in0.0 mm 0.00 in0.0 mm 0.00 in0.0 mm
01:40 AM 25.8°F-3.4°C 21.3°F-5.9°C 83% 2.0 mph SW3.2 kmh SW 5.0 mph8.0 kmh 29.89 in1012.2 mb 0.00 in0.0 mm 0.00 in0.0 mm 0.00 in0.0 mm
01:35 AM 25.8°F-3.4°C 21.3°F-5.9°C 83% 1.0 mph SW1.6 kmh SW 3.0 mph4.8 kmh 29.89 in1012.2 mb 0.00 in0.0 mm 0.00 in0.0 mm 0.00 in0.0 mm
01:30 AM 25.9°F-3.4°C 21.4°F-5.9°C 83% 1.0 mph SW1.6 kmh SW 2.0 mph3.2 kmh 29.89 in1012.2 mb 0.00 in0.0 mm 0.00 in0.0 mm 0.00 in0.0 mm
01:25 AM 25.9°F-3.4°C 21.2°F-6.0°C 82% 1.0 mph SSW1.6 kmh SSW 2.0 mph3.2 kmh 29.89 in1012.2 mb 0.00 in0.0 mm 0.00 in0.0 mm 0.00 in0.0 mm
01:20 AM 26.1°F-3.3°C 21.4°F-5.9°C 82% 1.0 mph SSW1.6 kmh SSW 4.0 mph6.4 kmh 29.89 in1012.2 mb 0.00 in0.0 mm 0.00 in0.0 mm 0.00 in0.0 mm
01:15 AM 26.3°F-3.2°C 21.6°F-5.8°C 82% 2.0 mph SSW3.2 kmh SSW 4.0 mph6.4 kmh 29.89 in1012.2 mb 0.00 in0.0 mm 0.00 in0.0 mm 0.00 in0.0 mm
01:10 AM 26.4°F-3.1°C 21.7°F-5.7°C 82% 2.0 mph SW3.2 kmh SW 4.0 mph6.4 kmh 29.90 in1012.5 mb 0.00 in0.0 mm 0.00 in0.0 mm 0.00 in0.0 mm
01:05 AM 26.5°F-3.1°C 21.7°F-5.7°C 82% 2.0 mph SW3.2 kmh SW 4.0 mph6.4 kmh 29.90 in1012.5 mb 0.00 in0.0 mm 0.00 in0.0 mm 0.00 in0.0 mm
01:00 AM 26.7°F-2.9°C 21.9°F-5.6°C 82% 2.0 mph SW3.2 kmh SW 5.0 mph8.0 kmh 29.90 in1012.5 mb 0.00 in0.0 mm 0.00 in0.0 mm 0.00 in0.0 mm
12:55 AM 26.7°F-2.9°C 21.7°F-5.7°C 81% 3.0 mph SW4.8 kmh SW 5.0 mph8.0 kmh 29.90 in1012.5 mb 0.00 in0.0 mm 0.00 in0.0 mm 0.00 in0.0 mm
12:50 AM 26.9°F-2.8°C 21.8°F-5.7°C 81% 2.0 mph SSW3.2 kmh SSW 5.0 mph8.0 kmh 29.90 in1012.5 mb 0.00 in0.0 mm 0.00 in0.0 mm 0.00 in0.0 mm
12:45 AM 26.9°F-2.8°C 21.8°F-5.7°C 81% 2.0 mph SSW3.2 kmh SSW 5.0 mph8.0 kmh 29.91 in1012.9 mb 0.00 in0.0 mm 0.00 in0.0 mm 0.00 in0.0 mm
12:40 AM 27.1°F-2.7°C 22.0°F-5.6°C 81% 2.0 mph SW3.2 kmh SW 4.0 mph6.4 kmh 29.91 in1012.9 mb 0.00 in0.0 mm 0.00 in0.0 mm 0.00 in0.0 mm
12:35 AM 27.0°F-2.8°C 21.9°F-5.6°C 81% 1.0 mph SW1.6 kmh SW 3.0 mph4.8 kmh 29.91 in1012.9 mb 0.00 in0.0 mm 0.00 in0.0 mm 0.00 in0.0 mm
12:30 AM 27.1°F-2.7°C 21.7°F-5.7°C 80% 1.0 mph WSW1.6 kmh WSW 4.0 mph6.4 kmh 29.91 in1012.9 mb 0.00 in0.0 mm 0.00 in0.0 mm 0.00 in0.0 mm
12:25 AM 27.1°F-2.7°C 21.7°F-5.7°C 80% 1.0 mph WSW1.6 kmh WSW 7.0 mph11.3 kmh 29.91 in1012.9 mb 0.00 in0.0 mm 0.00 in0.0 mm 0.00 in0.0 mm
12:20 AM 27.2°F-2.7°C 21.8°F-5.7°C 80% 1.0 mph WSW1.6 kmh WSW 7.0 mph11.3 kmh 29.91 in1012.9 mb 0.00 in0.0 mm 0.00 in0.0 mm 0.00 in0.0 mm
12:15 AM 27.0°F-2.8°C 21.9°F-5.6°C 81% 1.0 mph SW1.6 kmh SW 4.0 mph6.4 kmh 29.92 in1013.2 mb 0.00 in0.0 mm 0.00 in0.0 mm 0.00 in0.0 mm
12:10 AM 26.9°F-2.8°C 21.6°F-5.8°C 80% 2.0 mph SW3.2 kmh SW 6.0 mph9.7 kmh 29.91 in1012.9 mb 0.00 in0.0 mm 0.00 in0.0 mm 0.00 in0.0 mm
12:05 AM 27.0°F-2.8°C 21.7°F-5.7°C 80% 1.0 mph SW1.6 kmh SW 6.0 mph9.7 kmh 29.92 in1013.2 mb 0.00 in0.0 mm 0.00 in0.0 mm 0.00 in0.0 mm
12:00 AM 26.9°F-2.8°C 21.6°F-5.8°C 80% 1.0 mph SW1.6 kmh SW 4.0 mph6.4 kmh 29.92 in1013.2 mb 0.00 in0.0 mm 0.00 in0.0 mm 0.00 in0.0 mm